sensor_id;sensor_type;location;lat;lon;timestamp;pressure;altitude;pressure_sealevel;temperature;humidity
46778;BME280;32536;47.128;8.746;2023-11-19T00:00:07;91870.16;;;10.66;59.25
46778;BME280;32536;47.128;8.746;2023-11-19T00:02:38;91869.00;;;10.67;59.51
46778;BME280;32536;47.128;8.746;2023-11-19T00:05:05;91868.59;;;10.68;59.19
46778;BME280;32536;47.128;8.746;2023-11-19T00:07:37;91872.75;;;10.73;59.08
46778;BME280;32536;47.128;8.746;2023-11-19T00:10:09;91862.38;;;10.75;59.00
46778;BME280;32536;47.128;8.746;2023-11-19T00:12:43;91862.38;;;10.75;59.07
46778;BME280;32536;47.128;8.746;2023-11-19T00:15:11;91858.28;;;10.67;59.46
46778;BME280;32536;47.128;8.746;2023-11-19T00:17:38;91858.66;;;10.65;59.86
46778;BME280;32536;47.128;8.746;2023-11-19T00:20:06;91863.22;;;10.68;59.46
46778;BME280;32536;47.128;8.746;2023-11-19T00:22:33;91857.44;;;10.73;60.01
46778;BME280;32536;47.128;8.746;2023-11-19T00:25:00;91848.22;;;10.75;59.29
46778;BME280;32536;47.128;8.746;2023-11-19T00:27:27;91848.59;;;10.77;59.73
46778;BME280;32536;47.128;8.746;2023-11-19T00:29:54;91847.41;;;10.78;60.18
46778;BME280;32536;47.128;8.746;2023-11-19T00:32:21;91841.31;;;10.77;60.66
46778;BME280;32536;47.128;8.746;2023-11-19T00:34:48;91835.19;;;10.77;60.52
46778;BME280;32536;47.128;8.746;2023-11-19T00:37:15;91817.19;;;10.77;60.37
46778;BME280;32536;47.128;8.746;2023-11-19T00:39:42;91823.25;;;10.81;59.96
46778;BME280;32536;47.128;8.746;2023-11-19T00:42:12;91810.94;;;10.87;59.95
46778;BME280;32536;47.128;8.746;2023-11-19T00:44:39;91824.25;;;10.95;60.16
46778;BME280;32536;47.128;8.746;2023-11-19T00:47:07;91831.88;;;11.00;59.89
46778;BME280;32536;47.128;8.746;2023-11-19T00:49:34;91822.22;;;11.06;59.92
46778;BME280;32536;47.128;8.746;2023-11-19T00:52:01;91819.84;;;11.12;59.51
46778;BME280;32536;47.128;8.746;2023-11-19T00:54:28;91830.47;;;11.19;59.61
46778;BME280;32536;47.128;8.746;2023-11-19T00:56:55;91828.47;;;11.27;59.72
46778;BME280;32536;47.128;8.746;2023-11-19T00:59:22;91823.81;;;11.31;59.51
46778;BME280;32536;47.128;8.746;2023-11-19T01:01:49;91832.22;;;11.33;59.29
46778;BME280;32536;47.128;8.746;2023-11-19T01:04:19;91818.81;;;11.33;59.92
46778;BME280;32536;47.128;8.746;2023-11-19T01:06:45;91817.19;;;11.39;59.61
46778;BME280;32536;47.128;8.746;2023-11-19T01:09:12;91816.84;;;11.37;60.16
46778;BME280;32536;47.128;8.746;2023-11-19T01:11:39;91814.50;;;11.39;59.63
46778;BME280;32536;47.128;8.746;2023-11-19T01:14:05;91820.63;;;11.40;59.93
46778;BME280;32536;47.128;8.746;2023-11-19T01:16:32;91816.09;;;11.36;60.49
46778;BME280;32536;47.128;8.746;2023-11-19T01:18:59;91809.19;;;11.35;60.37
46778;BME280;32536;47.128;8.746;2023-11-19T01:21:30;91820.66;;;11.36;60.54
46778;BME280;32536;47.128;8.746;2023-11-19T01:23:57;91829.09;;;11.38;60.93
46778;BME280;32536;47.128;8.746;2023-11-19T01:26:25;91827.88;;;11.43;60.29
46778;BME280;32536;47.128;8.746;2023-11-19T01:28:52;91827.47;;;11.44;60.34
46778;BME280;32536;47.128;8.746;2023-11-19T01:31:41;91823.94;;;11.47;61.70
46778;BME280;32536;47.128;8.746;2023-11-19T01:34:08;91818.91;;;11.53;60.61
46778;BME280;32536;47.128;8.746;2023-11-19T01:36:35;91819.25;;;11.55;60.65
46778;BME280;32536;47.128;8.746;2023-11-19T01:39:02;91818.16;;;11.52;60.87
46778;BME280;32536;47.128;8.746;2023-11-19T01:41:35;91825.78;;;11.54;61.73
46778;BME280;32536;47.128;8.746;2023-11-19T01:44:02;91808.91;;;11.57;60.91
46778;BME280;32536;47.128;8.746;2023-11-19T01:46:30;91812.31;;;11.58;61.04
46778;BME280;32536;47.128;8.746;2023-11-19T01:49:00;91814.53;;;11.63;61.23
46778;BME280;32536;47.128;8.746;2023-11-19T01:51:28;91816.81;;;11.64;61.50
46778;BME280;32536;47.128;8.746;2023-11-19T01:53:57;91809.84;;;11.71;61.26
46778;BME280;32536;47.128;8.746;2023-11-19T01:56:25;91791.69;;;11.78;61.47
46778;BME280;32536;47.128;8.746;2023-11-19T01:58:54;91792.00;;;11.84;61.57
46778;BME280;32536;47.128;8.746;2023-11-19T02:01:21;91786.56;;;11.88;61.69
46778;BME280;32536;47.128;8.746;2023-11-19T02:03:48;91784.94;;;11.94;61.64
46778;BME280;32536;47.128;8.746;2023-11-19T02:06:15;91781.03;;;11.98;61.55
46778;BME280;32536;47.128;8.746;2023-11-19T02:08:42;91771.00;;;12.03;62.11
46778;BME280;32536;47.128;8.746;2023-11-19T02:11:09;91763.72;;;12.03;61.61
46778;BME280;32536;47.128;8.746;2023-11-19T02:13:37;91763.59;;;12.10;61.58
46778;BME280;32536;47.128;8.746;2023-11-19T02:16:05;91760.09;;;12.13;61.58
46778;BME280;32536;47.128;8.746;2023-11-19T02:18:32;91756.09;;;12.22;61.62
46778;BME280;32536;47.128;8.746;2023-11-19T02:20:59;91754.44;;;12.28;61.26
46778;BME280;32536;47.128;8.746;2023-11-19T02:23:27;91754.25;;;12.39;60.68
46778;BME280;32536;47.128;8.746;2023-11-19T02:28:44;91744.47;;;12.48;60.31
46778;BME280;32536;47.128;8.746;2023-11-19T02:31:42;91743.66;;;12.52;61.21
46778;BME280;32536;47.128;8.746;2023-11-19T02:34:10;91739.31;;;12.58;60.65
46778;BME280;32536;47.128;8.746;2023-11-19T02:36:38;91750.34;;;12.63;60.71
46778;BME280;32536;47.128;8.746;2023-11-19T02:39:08;91736.00;;;12.70;60.89
46778;BME280;32536;47.128;8.746;2023-11-19T02:41:37;91727.78;;;12.77;60.46
46778;BME280;32536;47.128;8.746;2023-11-19T02:44:06;91721.66;;;12.77;60.81
46778;BME280;32536;47.128;8.746;2023-11-19T02:46:33;91751.56;;;12.79;60.25
46778;BME280;32536;47.128;8.746;2023-11-19T02:49:00;91747.69;;;12.80;60.08
46778;BME280;32536;47.128;8.746;2023-11-19T02:51:26;91732.34;;;12.80;60.19
46778;BME280;32536;47.128;8.746;2023-11-19T02:53:53;91718.84;;;12.84;60.02
46778;BME280;32536;47.128;8.746;2023-11-19T02:56:20;91705.72;;;12.86;60.20
46778;BME280;32536;47.128;8.746;2023-11-19T02:59:00;91705.63;;;12.90;59.71
46778;BME280;32536;47.128;8.746;2023-11-19T03:01:37;91702.53;;;12.91;59.94
46778;BME280;32536;47.128;8.746;2023-11-19T03:04:09;91691.69;;;12.95;60.04
46778;BME280;32536;47.128;8.746;2023-11-19T03:06:37;91688.25;;;12.94;59.96
46778;BME280;32536;47.128;8.746;2023-11-19T03:09:04;91680.69;;;12.89;60.27
46778;BME280;32536;47.128;8.746;2023-11-19T03:11:36;91698.44;;;12.87;59.88
46778;BME280;32536;47.128;8.746;2023-11-19T03:14:03;91694.28;;;12.82;59.99
46778;BME280;32536;47.128;8.746;2023-11-19T03:16:30;91701.59;;;12.81;60.07
46778;BME280;32536;47.128;8.746;2023-11-19T03:18:58;91706.63;;;12.79;59.73
46778;BME280;32536;47.128;8.746;2023-11-19T03:21:29;91702.84;;;12.77;60.17
46778;BME280;32536;47.128;8.746;2023-11-19T03:23:58;91694.72;;;12.80;59.80
46778;BME280;32536;47.128;8.746;2023-11-19T03:26:27;91706.97;;;12.81;59.92
46778;BME280;32536;47.128;8.746;2023-11-19T03:28:54;91710.84;;;12.80;59.78
46778;BME280;32536;47.128;8.746;2023-11-19T03:31:47;91718.22;;;12.76;60.06
46778;BME280;32536;47.128;8.746;2023-11-19T03:34:14;91714.69;;;12.79;59.81
46778;BME280;32536;47.128;8.746;2023-11-19T03:36:41;91722.34;;;12.81;59.93
46778;BME280;32536;47.128;8.746;2023-11-19T03:39:08;91714.19;;;12.85;59.81
46778;BME280;32536;47.128;8.746;2023-11-19T03:41:34;91715.78;;;12.82;59.66
46778;BME280;32536;47.128;8.746;2023-11-19T03:44:01;91721.25;;;12.78;60.06
46778;BME280;32536;47.128;8.746;2023-11-19T03:46:28;91712.00;;;12.79;59.73
46778;BME280;32536;47.128;8.746;2023-11-19T03:48:55;91707.94;;;12.71;60.07
46778;BME280;32536;47.128;8.746;2023-11-19T03:51:22;91707.41;;;12.60;60.25
46778;BME280;32536;47.128;8.746;2023-11-19T03:53:49;91696.88;;;12.49;60.22
46778;BME280;32536;47.128;8.746;2023-11-19T03:56:16;91705.56;;;12.37;60.94
46778;BME280;32536;47.128;8.746;2023-11-19T03:58:42;91712.53;;;12.34;60.87
46778;BME280;32536;47.128;8.746;2023-11-19T04:01:12;91722.38;;;12.41;60.64
46778;BME280;32536;47.128;8.746;2023-11-19T04:03:39;91730.34;;;12.44;60.39
46778;BME280;32536;47.128;8.746;2023-11-19T04:06:06;91717.59;;;12.48;60.63
46778;BME280;32536;47.128;8.746;2023-11-19T04:08:33;91721.75;;;12.53;60.40
46778;BME280;32536;47.128;8.746;2023-11-19T04:11:03;91725.53;;;12.56;60.31
46778;BME280;32536;47.128;8.746;2023-11-19T04:13:31;91735.03;;;12.60;60.59
46778;BME280;32536;47.128;8.746;2023-11-19T04:15:58;91728.84;;;12.63;60.49
46778;BME280;32536;47.128;8.746;2023-11-19T04:18:25;91737.31;;;12.62;60.18
46778;BME280;32536;47.128;8.746;2023-11-19T04:20:52;91739.66;;;12.60;60.65
46778;BME280;32536;47.128;8.746;2023-11-19T04:23:19;91731.69;;;12.56;60.62
46778;BME280;32536;47.128;8.746;2023-11-19T04:25:46;91739.75;;;12.56;60.44
46778;BME280;32536;47.128;8.746;2023-11-19T04:28:12;91760.47;;;12.56;60.48
46778;BME280;32536;47.128;8.746;2023-11-19T04:30:39;91758.47;;;12.60;60.63
46778;BME280;32536;47.128;8.746;2023-11-19T04:33:06;91763.38;;;12.65;60.51
46778;BME280;32536;47.128;8.746;2023-11-19T04:35:32;91749.94;;;12.65;60.70
46778;BME280;32536;47.128;8.746;2023-11-19T04:37:59;91758.00;;;12.65;60.39
46778;BME280;32536;47.128;8.746;2023-11-19T04:40:26;91768.88;;;12.58;60.53
46778;BME280;32536;47.128;8.746;2023-11-19T04:42:52;91764.00;;;12.53;60.64
46778;BME280;32536;47.128;8.746;2023-11-19T04:45:19;91765.63;;;12.46;60.96
46778;BME280;32536;47.128;8.746;2023-11-19T04:47:46;91773.28;;;12.48;60.91
46778;BME280;32536;47.128;8.746;2023-11-19T04:50:13;91772.88;;;12.49;60.49
46778;BME280;32536;47.128;8.746;2023-11-19T04:52:39;91771.28;;;12.52;60.47
46778;BME280;32536;47.128;8.746;2023-11-19T04:55:06;91764.31;;;12.55;60.82
46778;BME280;32536;47.128;8.746;2023-11-19T04:57:33;91765.84;;;12.56;60.70
46778;BME280;32536;47.128;8.746;2023-11-19T05:00:00;91769.22;;;12.60;60.35
46778;BME280;32536;47.128;8.746;2023-11-19T05:02:27;91774.53;;;12.63;60.37
46778;BME280;32536;47.128;8.746;2023-11-19T05:04:53;91785.22;;;12.67;59.96
46778;BME280;32536;47.128;8.746;2023-11-19T05:07:20;91784.78;;;12.69;60.22
46778;BME280;32536;47.128;8.746;2023-11-19T05:09:47;91789.34;;;12.72;60.32
46778;BME280;32536;47.128;8.746;2023-11-19T05:12:14;91796.16;;;12.76;60.16
46778;BME280;32536;47.128;8.746;2023-11-19T05:14:41;91781.13;;;12.79;60.12
46778;BME280;32536;47.128;8.746;2023-11-19T05:17:15;91786.88;;;12.81;60.35
46778;BME280;32536;47.128;8.746;2023-11-19T05:19:43;91801.47;;;12.80;60.12
46778;BME280;32536;47.128;8.746;2023-11-19T05:22:10;91805.75;;;12.77;60.21
46778;BME280;32536;47.128;8.746;2023-11-19T05:24:38;91814.97;;;12.76;60.08
46778;BME280;32536;47.128;8.746;2023-11-19T05:27:06;91819.19;;;12.77;60.14
46778;BME280;32536;47.128;8.746;2023-11-19T05:29:33;91790.78;;;12.76;60.36
46778;BME280;32536;47.128;8.746;2023-11-19T05:32:00;91786.56;;;12.75;60.49
46778;BME280;32536;47.128;8.746;2023-11-19T05:34:27;91793.16;;;12.74;60.79
46778;BME280;32536;47.128;8.746;2023-11-19T05:36:54;91787.00;;;12.74;60.47
46778;BME280;32536;47.128;8.746;2023-11-19T05:39:21;91792.72;;;12.76;60.63
46778;BME280;32536;47.128;8.746;2023-11-19T05:41:48;91800.72;;;12.79;60.64
46778;BME280;32536;47.128;8.746;2023-11-19T05:44:14;91794.84;;;12.85;60.37
46778;BME280;32536;47.128;8.746;2023-11-19T05:46:42;91812.44;;;12.89;60.23
46778;BME280;32536;47.128;8.746;2023-11-19T05:49:09;91799.31;;;12.91;60.35
46778;BME280;32536;47.128;8.746;2023-11-19T05:51:37;91803.28;;;12.87;60.13
46778;BME280;32536;47.128;8.746;2023-11-19T05:54:08;91808.31;;;12.85;60.41
46778;BME280;32536;47.128;8.746;2023-11-19T05:56:36;91829.38;;;12.86;60.11
46778;BME280;32536;47.128;8.746;2023-11-19T05:59:03;91831.31;;;12.86;60.21
46778;BME280;32536;47.128;8.746;2023-11-19T06:01:36;91842.97;;;12.79;60.81
46778;BME280;32536;47.128;8.746;2023-11-19T06:04:04;91825.31;;;12.78;60.28
46778;BME280;32536;47.128;8.746;2023-11-19T06:06:30;91813.81;;;12.77;60.50
46778;BME280;32536;47.128;8.746;2023-11-19T06:08:57;91826.50;;;12.77;60.54
46778;BME280;32536;47.128;8.746;2023-11-19T06:11:24;91799.13;;;12.62;60.95
46778;BME280;32536;47.128;8.746;2023-11-19T06:13:52;91786.53;;;12.59;60.74
46778;BME280;32536;47.128;8.746;2023-11-19T06:16:19;91786.16;;;12.57;61.13
46778;BME280;32536;47.128;8.746;2023-11-19T06:18:46;91793.00;;;12.61;60.65
46778;BME280;32536;47.128;8.746;2023-11-19T06:21:13;91795.56;;;12.69;60.50
46778;BME280;32536;47.128;8.746;2023-11-19T06:23:40;91798.84;;;12.76;60.74
46778;BME280;32536;47.128;8.746;2023-11-19T06:26:06;91803.72;;;12.81;60.44
46778;BME280;32536;47.128;8.746;2023-11-19T06:28:34;91794.78;;;12.88;60.55
46778;BME280;32536;47.128;8.746;2023-11-19T06:31:03;91799.25;;;12.95;60.37
46778;BME280;32536;47.128;8.746;2023-11-19T06:33:30;91795.75;;;12.98;60.58
46778;BME280;32536;47.128;8.746;2023-11-19T06:35:57;91811.81;;;13.02;60.35
46778;BME280;32536;47.128;8.746;2023-11-19T06:38:25;91826.84;;;12.99;60.71
46778;BME280;32536;47.128;8.746;2023-11-19T06:40:52;91820.50;;;12.89;60.54
46778;BME280;32536;47.128;8.746;2023-11-19T06:43:19;91812.28;;;12.76;60.96
46778;BME280;32536;47.128;8.746;2023-11-19T06:45:45;91809.06;;;12.65;61.40
46778;BME280;32536;47.128;8.746;2023-11-19T06:48:12;91813.88;;;12.54;61.60
46778;BME280;32536;47.128;8.746;2023-11-19T06:50:39;91800.56;;;12.46;61.86
46778;BME280;32536;47.128;8.746;2023-11-19T06:53:05;91805.16;;;12.46;62.05
46778;BME280;32536;47.128;8.746;2023-11-19T06:55:36;91816.69;;;12.46;61.84
46778;BME280;32536;47.128;8.746;2023-11-19T06:58:02;91813.88;;;12.54;61.29
46778;BME280;32536;47.128;8.746;2023-11-19T07:00:31;91809.19;;;12.58;61.56
46778;BME280;32536;47.128;8.746;2023-11-19T07:02:59;91817.94;;;12.62;61.81
46778;BME280;32536;47.128;8.746;2023-11-19T07:05:25;91819.38;;;12.67;61.43
46778;BME280;32536;47.128;8.746;2023-11-19T07:07:52;91810.91;;;12.68;61.63
46778;BME280;32536;47.128;8.746;2023-11-19T07:10:20;91804.72;;;12.71;61.40
46778;BME280;32536;47.128;8.746;2023-11-19T07:12:47;91785.47;;;12.73;61.67
46778;BME280;32536;47.128;8.746;2023-11-19T07:15:15;91796.16;;;12.76;61.08
46778;BME280;32536;47.128;8.746;2023-11-19T07:17:43;91816.84;;;12.79;61.35
46778;BME280;32536;47.128;8.746;2023-11-19T07:20:11;91792.97;;;12.81;61.32
46778;BME280;32536;47.128;8.746;2023-11-19T07:22:44;91797.53;;;12.85;61.38
46778;BME280;32536;47.128;8.746;2023-11-19T07:25:14;91794.78;;;12.88;61.44
46778;BME280;32536;47.128;8.746;2023-11-19T07:27:41;91808.22;;;12.88;61.59
46778;BME280;32536;47.128;8.746;2023-11-19T07:30:08;91806.28;;;12.89;61.51
46778;BME280;32536;47.128;8.746;2023-11-19T07:32:35;91827.34;;;12.94;61.42
46778;BME280;32536;47.128;8.746;2023-11-19T07:35:05;91827.19;;;13.01;61.23
46778;BME280;32536;47.128;8.746;2023-11-19T07:37:32;91810.16;;;13.08;61.31
46778;BME280;32536;47.128;8.746;2023-11-19T07:39:59;91815.38;;;13.15;61.33
46778;BME280;32536;47.128;8.746;2023-11-19T07:42:26;91816.06;;;13.19;61.33
46778;BME280;32536;47.128;8.746;2023-11-19T07:44:53;91819.03;;;13.25;61.14
46778;BME280;32536;47.128;8.746;2023-11-19T07:47:21;91821.22;;;13.30;61.15
46778;BME280;32536;47.128;8.746;2023-11-19T07:49:50;91809.63;;;13.33;61.13
46778;BME280;32536;47.128;8.746;2023-11-19T07:52:17;91814.94;;;13.37;60.97
46778;BME280;32536;47.128;8.746;2023-11-19T07:54:44;91816.50;;;13.38;61.22
46778;BME280;32536;47.128;8.746;2023-11-19T07:57:10;91817.25;;;13.38;61.13
46778;BME280;32536;47.128;8.746;2023-11-19T07:59:37;91828.66;;;13.42;61.22
46778;BME280;32536;47.128;8.746;2023-11-19T08:02:05;91809.09;;;13.42;61.08
46778;BME280;32536;47.128;8.746;2023-11-19T08:04:32;91812.44;;;13.46;61.00
46778;BME280;32536;47.128;8.746;2023-11-19T08:06:59;91820.13;;;13.48;61.07
46778;BME280;32536;47.128;8.746;2023-11-19T08:09:26;91811.63;;;13.49;60.91
46778;BME280;32536;47.128;8.746;2023-11-19T08:11:53;91812.72;;;13.52;60.92
46778;BME280;32536;47.128;8.746;2023-11-19T08:14:22;91821.47;;;13.56;60.89
46778;BME280;32536;47.128;8.746;2023-11-19T08:16:49;91826.44;;;13.57;60.95
46778;BME280;32536;47.128;8.746;2023-11-19T08:19:15;91814.25;;;13.53;60.77
46778;BME280;32536;47.128;8.746;2023-11-19T08:21:42;91820.78;;;13.52;61.03
46778;BME280;32536;47.128;8.746;2023-11-19T08:24:09;91811.53;;;13.53;60.89
46778;BME280;32536;47.128;8.746;2023-11-19T08:26:36;91813.06;;;13.54;61.30
46778;BME280;32536;47.128;8.746;2023-11-19T08:29:02;91818.09;;;13.52;61.26
46778;BME280;32536;47.128;8.746;2023-11-19T08:31:29;91820.78;;;13.52;61.50
46778;BME280;32536;47.128;8.746;2023-11-19T08:33:56;91829.13;;;13.57;61.36
46778;BME280;32536;47.128;8.746;2023-11-19T08:36:22;91834.78;;;13.63;61.33
46778;BME280;32536;47.128;8.746;2023-11-19T08:38:49;91833.94;;;13.66;61.61
46778;BME280;32536;47.128;8.746;2023-11-19T08:41:17;91835.38;;;13.71;61.46
46778;BME280;32536;47.128;8.746;2023-11-19T08:43:45;91838.00;;;13.74;61.42
46778;BME280;32536;47.128;8.746;2023-11-19T08:46:13;91837.31;;;13.70;61.58
46778;BME280;32536;47.128;8.746;2023-11-19T08:48:39;91835.03;;;13.69;61.71
46778;BME280;32536;47.128;8.746;2023-11-19T08:51:06;91837.66;;;13.72;61.71
46778;BME280;32536;47.128;8.746;2023-11-19T08:53:33;91831.75;;;13.77;61.51
46778;BME280;32536;47.128;8.746;2023-11-19T08:56:00;91832.78;;;13.84;61.59
46778;BME280;32536;47.128;8.746;2023-11-19T08:58:28;91838.94;;;13.84;61.50
46778;BME280;32536;47.128;8.746;2023-11-19T09:00:56;91830.44;;;13.86;61.56
46778;BME280;32536;47.128;8.746;2023-11-19T09:03:23;91837.41;;;13.83;61.51
46778;BME280;32536;47.128;8.746;2023-11-19T09:05:52;91850.38;;;13.88;61.55
46778;BME280;32536;47.128;8.746;2023-11-19T09:08:19;91834.56;;;13.90;61.50
46778;BME280;32536;47.128;8.746;2023-11-19T09:10:46;91830.94;;;13.97;61.57
46778;BME280;32536;47.128;8.746;2023-11-19T09:13:13;91835.81;;;14.02;61.34
46778;BME280;32536;47.128;8.746;2023-11-19T09:15:39;91845.09;;;14.01;61.37
46778;BME280;32536;47.128;8.746;2023-11-19T09:18:08;91844.66;;;14.03;61.45
46778;BME280;32536;47.128;8.746;2023-11-19T09:20:35;91849.97;;;14.06;61.39
46778;BME280;32536;47.128;8.746;2023-11-19T09:23:05;91850.72;;;14.07;61.48
46778;BME280;32536;47.128;8.746;2023-11-19T09:25:32;91859.66;;;14.04;61.82
46778;BME280;32536;47.128;8.746;2023-11-19T09:27:59;91852.31;;;14.04;61.50
46778;BME280;32536;47.128;8.746;2023-11-19T09:30:25;91844.31;;;14.01;62.17
46778;BME280;32536;47.128;8.746;2023-11-19T09:32:52;91858.22;;;13.99;61.94
46778;BME280;32536;47.128;8.746;2023-11-19T09:35:19;91863.25;;;13.97;62.04
46778;BME280;32536;47.128;8.746;2023-11-19T09:37:46;91865.19;;;13.97;62.09
46778;BME280;32536;47.128;8.746;2023-11-19T09:40:13;91869.38;;;13.81;62.57
46778;BME280;32536;47.128;8.746;2023-11-19T09:42:43;91865.06;;;13.67;63.40
46778;BME280;32536;47.128;8.746;2023-11-19T09:45:15;91859.63;;;13.71;62.68
46778;BME280;32536;47.128;8.746;2023-11-19T09:47:45;91869.88;;;13.76;62.78
46778;BME280;32536;47.128;8.746;2023-11-19T09:50:19;91866.03;;;13.77;63.27
46778;BME280;32536;47.128;8.746;2023-11-19T09:52:47;91850.88;;;13.83;62.40
46778;BME280;32536;47.128;8.746;2023-11-19T09:55:14;91843.81;;;13.89;62.30
46778;BME280;32536;47.128;8.746;2023-11-19T09:57:41;91842.56;;;13.94;62.43
46778;BME280;32536;47.128;8.746;2023-11-19T10:00:10;91846.34;;;13.97;62.13
46778;BME280;32536;47.128;8.746;2023-11-19T10:02:39;91843.56;;;14.00;62.06
46778;BME280;32536;47.128;8.746;2023-11-19T10:05:07;91838.41;;;14.06;62.11
46778;BME280;32536;47.128;8.746;2023-11-19T10:07:34;91839.50;;;14.08;61.91
46778;BME280;32536;47.128;8.746;2023-11-19T10:10:01;91814.88;;;14.10;62.19
46778;BME280;32536;47.128;8.746;2023-11-19T10:12:32;91811.91;;;14.04;62.10
46778;BME280;32536;47.128;8.746;2023-11-19T10:14:59;91817.38;;;14.01;62.37
46778;BME280;32536;47.128;8.746;2023-11-19T10:17:29;91813.16;;;14.00;62.22
46778;BME280;32536;47.128;8.746;2023-11-19T10:19:59;91813.94;;;14.00;62.00
46778;BME280;32536;47.128;8.746;2023-11-19T10:22:27;91814.03;;;13.97;62.39
46778;BME280;32536;47.128;8.746;2023-11-19T10:24:54;91805.69;;;13.91;62.14
46778;BME280;32536;47.128;8.746;2023-11-19T10:27:24;91819.81;;;13.95;62.44
46778;BME280;32536;47.128;8.746;2023-11-19T10:29:51;91820.00;;;14.04;62.22
46778;BME280;32536;47.128;8.746;2023-11-19T10:32:18;91820.16;;;14.14;62.13
46778;BME280;32536;47.128;8.746;2023-11-19T10:34:45;91829.16;;;14.23;61.78
46778;BME280;32536;47.128;8.746;2023-11-19T10:37:38;91833.53;;;14.34;62.57
46778;BME280;32536;47.128;8.746;2023-11-19T10:40:05;91819.88;;;14.41;61.53
46778;BME280;32536;47.128;8.746;2023-11-19T10:42:35;91829.03;;;14.44;61.83
46778;BME280;32536;47.128;8.746;2023-11-19T10:45:02;91824.00;;;14.46;61.81
46778;BME280;32536;47.128;8.746;2023-11-19T10:47:30;91837.16;;;14.27;61.94
46778;BME280;32536;47.128;8.746;2023-11-19T10:49:58;91828.81;;;14.21;62.40
46778;BME280;32536;47.128;8.746;2023-11-19T10:52:25;91823.19;;;14.16;62.21
46778;BME280;32536;47.128;8.746;2023-11-19T10:54:55;91827.06;;;14.15;62.46
46778;BME280;32536;47.128;8.746;2023-11-19T10:57:30;91827.38;;;14.17;62.40
46778;BME280;32536;47.128;8.746;2023-11-19T11:00:02;91816.19;;;14.18;62.51
46778;BME280;32536;47.128;8.746;2023-11-19T11:02:40;91833.13;;;14.19;63.44
46778;BME280;32536;47.128;8.746;2023-11-19T11:05:08;91833.78;;;14.23;62.06
46778;BME280;32536;47.128;8.746;2023-11-19T11:07:35;91830.25;;;14.26;62.11
46778;BME280;32536;47.128;8.746;2023-11-19T11:10:03;91829.81;;;14.28;62.38
46778;BME280;32536;47.128;8.746;2023-11-19T11:12:36;91822.16;;;14.26;62.12
46778;BME280;32536;47.128;8.746;2023-11-19T11:15:05;91820.75;;;14.21;61.75
46778;BME280;32536;47.128;8.746;2023-11-19T11:17:33;91821.69;;;14.15;62.29
46778;BME280;32536;47.128;8.746;2023-11-19T11:20:01;91818.56;;;14.16;62.13
46778;BME280;32536;47.128;8.746;2023-11-19T11:22:28;91814.78;;;14.14;62.33
46778;BME280;32536;47.128;8.746;2023-11-19T11:27:50;91812.31;;;14.19;61.30
46778;BME280;32536;47.128;8.746;2023-11-19T11:30:55;91809.31;;;14.17;61.58
46778;BME280;32536;47.128;8.746;2023-11-19T11:39:34;91816.97;;;14.19;61.88
46778;BME280;32536;47.128;8.746;2023-11-19T11:50:16;91802.72;;;14.18;61.99
46778;BME280;32536;47.128;8.746;2023-11-19T11:58:05;91801.88;;;14.21;61.57
46778;BME280;32536;47.128;8.746;2023-11-19T12:00:36;91788.22;;;14.29;61.67
46778;BME280;32536;47.128;8.746;2023-11-19T12:03:07;91794.63;;;14.35;61.46
46778;BME280;32536;47.128;8.746;2023-11-19T12:05:42;91791.66;;;14.29;60.89
46778;BME280;32536;47.128;8.746;2023-11-19T12:08:12;91795.13;;;14.30;61.55
46778;BME280;32536;47.128;8.746;2023-11-19T12:10:52;91790.75;;;14.36;60.67
46778;BME280;32536;47.128;8.746;2023-11-19T12:13:24;91790.88;;;14.45;61.23
46778;BME280;32536;47.128;8.746;2023-11-19T12:18:30;91774.41;;;14.43;60.42
46778;BME280;32536;47.128;8.746;2023-11-19T12:21:01;91774.97;;;14.51;61.08
46778;BME280;32536;47.128;8.746;2023-11-19T12:23:31;91771.72;;;14.56;60.95
46778;BME280;32536;47.128;8.746;2023-11-19T12:25:59;91767.84;;;14.57;60.59
46778;BME280;32536;47.128;8.746;2023-11-19T12:28:26;91770.81;;;14.63;61.02
46778;BME280;32536;47.128;8.746;2023-11-19T12:30:53;91774.94;;;14.67;60.90
46778;BME280;32536;47.128;8.746;2023-11-19T12:33:20;91761.03;;;14.69;60.88
46778;BME280;32536;47.128;8.746;2023-11-19T12:35:47;91758.00;;;14.67;60.55
46778;BME280;32536;47.128;8.746;2023-11-19T12:38:24;91772.91;;;14.71;59.78
46778;BME280;32536;47.128;8.746;2023-11-19T12:41:07;91762.47;;;14.73;60.06
46778;BME280;32536;47.128;8.746;2023-11-19T12:43:37;91764.53;;;14.82;60.64
46778;BME280;32536;47.128;8.746;2023-11-19T12:46:17;91759.78;;;14.86;59.24
46778;BME280;32536;47.128;8.746;2023-11-19T12:48:49;91758.84;;;14.93;60.40
46778;BME280;32536;47.128;8.746;2023-11-19T12:51:16;91756.47;;;14.95;60.32
46778;BME280;32536;47.128;8.746;2023-11-19T12:53:53;91754.28;;;14.90;57.58
46778;BME280;32536;47.128;8.746;2023-11-19T12:56:21;91761.72;;;14.86;59.62
46778;BME280;32536;47.128;8.746;2023-11-19T12:58:48;91753.09;;;14.91;60.24
46778;BME280;32536;47.128;8.746;2023-11-19T13:01:20;91762.94;;;14.98;60.08
46778;BME280;32536;47.128;8.746;2023-11-19T13:03:47;91763.78;;;14.95;59.86
46778;BME280;32536;47.128;8.746;2023-11-19T13:06:17;91756.66;;;14.88;59.12
46778;BME280;32536;47.128;8.746;2023-11-19T13:08:48;91745.53;;;14.86;59.52
46778;BME280;32536;47.128;8.746;2023-11-19T13:11:34;91735.59;;;14.83;59.19
46778;BME280;32536;47.128;8.746;2023-11-19T13:14:02;91738.44;;;14.92;60.10
46778;BME280;32536;47.128;8.746;2023-11-19T13:16:38;91722.25;;;14.92;60.09
46778;BME280;32536;47.128;8.746;2023-11-19T13:19:04;91733.03;;;14.92;59.79
46778;BME280;32536;47.128;8.746;2023-11-19T13:21:32;91715.66;;;14.80;59.52
46778;BME280;32536;47.128;8.746;2023-11-19T13:23:58;91721.91;;;14.77;60.00
46778;BME280;32536;47.128;8.746;2023-11-19T13:26:25;91716.81;;;14.79;59.87
46778;BME280;32536;47.128;8.746;2023-11-19T13:28:52;91713.34;;;14.66;59.13
46778;BME280;32536;47.128;8.746;2023-11-19T13:31:18;91704.16;;;14.63;59.67
46778;BME280;32536;47.128;8.746;2023-11-19T13:33:45;91698.84;;;14.60;59.82